sensor_id;sensor_type;location;lat;lon;timestamp;P1;durP1;ratioP1;P2;durP2;ratioP2
57443;SDS011;43289;52.962;6.196;2022-11-23T00:01:31;17.50;;;9.07;;
57443;SDS011;43289;52.962;6.196;2022-11-23T00:03:59;14.15;;;8.15;;
57443;SDS011;43289;52.962;6.196;2022-11-23T00:06:26;12.35;;;9.23;;
57443;SDS011;43289;52.962;6.196;2022-11-23T00:08:52;12.23;;;8.43;;
57443;SDS011;43289;52.962;6.196;2022-11-23T00:11:19;11.13;;;8.55;;
57443;SDS011;43289;52.962;6.196;2022-11-23T00:14:02;15.23;;;8.70;;
57443;SDS011;43289;52.962;6.196;2022-11-23T00:16:29;15.77;;;8.75;;
57443;SDS011;43289;52.962;6.196;2022-11-23T00:18:56;11.32;;;8.20;;
57443;SDS011;43289;52.962;6.196;2022-11-23T00:21:23;15.30;;;8.75;;
57443;SDS011;43289;52.962;6.196;2022-11-23T00:23:49;9.52;;;7.40;;
57443;SDS011;43289;52.962;6.196;2022-11-23T00:26:16;11.68;;;8.65;;
57443;SDS011;43289;52.962;6.196;2022-11-23T00:28:42;14.57;;;8.30;;
57443;SDS011;43289;52.962;6.196;2022-11-23T00:31:09;12.50;;;8.82;;
57443;SDS011;43289;52.962;6.196;2022-11-23T00:33:35;13.57;;;8.63;;
57443;SDS011;43289;52.962;6.196;2022-11-23T00:36:06;12.07;;;7.40;;
57443;SDS011;43289;52.962;6.196;2022-11-23T00:38:32;12.07;;;7.00;;
57443;SDS011;43289;52.962;6.196;2022-11-23T00:41:02;13.05;;;7.78;;
57443;SDS011;43289;52.962;6.196;2022-11-23T00:43:28;12.35;;;7.22;;
57443;SDS011;43289;52.962;6.196;2022-11-23T00:46:05;11.45;;;7.93;;
57443;SDS011;43289;52.962;6.196;2022-11-23T00:48:31;13.88;;;8.50;;
57443;SDS011;43289;52.962;6.196;2022-11-23T00:50:58;13.35;;;8.07;;
57443;SDS011;43289;52.962;6.196;2022-11-23T00:53:25;12.00;;;7.30;;
57443;SDS011;43289;52.962;6.196;2022-11-23T00:55:51;13.00;;;7.90;;
57443;SDS011;43289;52.962;6.196;2022-11-23T00:58:18;10.75;;;7.25;;
57443;SDS011;43289;52.962;6.196;2022-11-23T01:00:44;10.50;;;7.60;;
57443;SDS011;43289;52.962;6.196;2022-11-23T01:03:10;12.35;;;7.50;;
57443;SDS011;43289;52.962;6.196;2022-11-23T01:05:36;13.63;;;8.35;;
57443;SDS011;43289;52.962;6.196;2022-11-23T01:08:03;14.07;;;7.85;;
57443;SDS011;43289;52.962;6.196;2022-11-23T01:10:29;10.65;;;8.07;;
57443;SDS011;43289;52.962;6.196;2022-11-23T01:12:56;13.38;;;8.85;;
57443;SDS011;43289;52.962;6.196;2022-11-23T01:15:22;13.93;;;8.45;;
57443;SDS011;43289;52.962;6.196;2022-11-23T01:17:48;13.73;;;8.48;;
57443;SDS011;43289;52.962;6.196;2022-11-23T01:20:14;16.02;;;8.23;;
57443;SDS011;43289;52.962;6.196;2022-11-23T01:22:47;10.52;;;7.18;;
57443;SDS011;43289;52.962;6.196;2022-11-23T01:25:16;11.55;;;7.60;;
57443;SDS011;43289;52.962;6.196;2022-11-23T01:27:42;11.73;;;8.05;;
57443;SDS011;43289;52.962;6.196;2022-11-23T01:30:08;14.23;;;8.05;;
57443;SDS011;43289;52.962;6.196;2022-11-23T01:32:34;11.65;;;8.05;;
57443;SDS011;43289;52.962;6.196;2022-11-23T01:37:32;14.13;;;7.13;;
57443;SDS011;43289;52.962;6.196;2022-11-23T01:39:58;12.00;;;7.78;;
57443;SDS011;43289;52.962;6.196;2022-11-23T01:47:55;14.88;;;8.93;;
57443;SDS011;43289;52.962;6.196;2022-11-23T01:50:23;15.60;;;8.32;;
57443;SDS011;43289;52.962;6.196;2022-11-23T01:52:50;11.07;;;7.85;;
57443;SDS011;43289;52.962;6.196;2022-11-23T01:55:16;11.63;;;7.95;;
57443;SDS011;43289;52.962;6.196;2022-11-23T02:00:13;17.38;;;9.63;;
57443;SDS011;43289;52.962;6.196;2022-11-23T02:02:40;19.10;;;9.82;;
57443;SDS011;43289;52.962;6.196;2022-11-23T02:05:08;17.35;;;9.68;;
57443;SDS011;43289;52.962;6.196;2022-11-23T02:07:35;16.33;;;10.15;;
57443;SDS011;43289;52.962;6.196;2022-11-23T02:10:02;21.65;;;11.18;;
57443;SDS011;43289;52.962;6.196;2022-11-23T02:12:30;20.42;;;11.40;;
57443;SDS011;43289;52.962;6.196;2022-11-23T02:14:56;14.98;;;9.90;;
57443;SDS011;43289;52.962;6.196;2022-11-23T02:17:22;18.58;;;11.00;;
57443;SDS011;43289;52.962;6.196;2022-11-23T02:20:03;15.75;;;10.70;;
57443;SDS011;43289;52.962;6.196;2022-11-23T02:22:32;18.90;;;11.02;;
57443;SDS011;43289;52.962;6.196;2022-11-23T02:25:01;19.63;;;12.27;;
57443;SDS011;43289;52.962;6.196;2022-11-23T02:27:32;23.73;;;12.75;;
57443;SDS011;43289;52.962;6.196;2022-11-23T02:29:58;19.95;;;12.32;;
57443;SDS011;43289;52.962;6.196;2022-11-23T02:32:25;19.02;;;11.57;;
57443;SDS011;43289;52.962;6.196;2022-11-23T02:34:51;21.73;;;12.05;;
57443;SDS011;43289;52.962;6.196;2022-11-23T02:37:18;21.85;;;13.57;;
57443;SDS011;43289;52.962;6.196;2022-11-23T02:39:45;18.25;;;11.85;;
57443;SDS011;43289;52.962;6.196;2022-11-23T02:42:12;22.52;;;12.50;;
57443;SDS011;43289;52.962;6.196;2022-11-23T02:47:04;23.45;;;12.75;;
57443;SDS011;43289;52.962;6.196;2022-11-23T02:49:31;21.80;;;13.60;;
57443;SDS011;43289;52.962;6.196;2022-11-23T02:51:57;19.42;;;13.15;;
57443;SDS011;43289;52.962;6.196;2022-11-23T02:54:23;20.65;;;11.48;;
57443;SDS011;43289;52.962;6.196;2022-11-23T02:56:49;17.40;;;12.57;;
57443;SDS011;43289;52.962;6.196;2022-11-23T02:59:15;19.77;;;12.65;;
57443;SDS011;43289;52.962;6.196;2022-11-23T03:01:41;24.27;;;14.98;;
57443;SDS011;43289;52.962;6.196;2022-11-23T03:04:07;24.05;;;13.43;;
57443;SDS011;43289;52.962;6.196;2022-11-23T03:06:34;29.08;;;14.77;;
57443;SDS011;43289;52.962;6.196;2022-11-23T03:09:00;22.80;;;13.55;;
57443;SDS011;43289;52.962;6.196;2022-11-23T03:11:26;21.30;;;13.13;;
57443;SDS011;43289;52.962;6.196;2022-11-23T03:13:52;24.75;;;13.32;;
57443;SDS011;43289;52.962;6.196;2022-11-23T03:16:18;26.17;;;12.43;;
57443;SDS011;43289;52.962;6.196;2022-11-23T03:18:44;26.13;;;13.68;;
57443;SDS011;43289;52.962;6.196;2022-11-23T03:21:10;23.75;;;14.27;;
57443;SDS011;43289;52.962;6.196;2022-11-23T03:23:36;21.88;;;13.15;;
57443;SDS011;43289;52.962;6.196;2022-11-23T03:26:02;20.85;;;12.93;;
57443;SDS011;43289;52.962;6.196;2022-11-23T03:28:28;19.33;;;13.75;;
57443;SDS011;43289;52.962;6.196;2022-11-23T03:30:55;25.80;;;14.55;;
57443;SDS011;43289;52.962;6.196;2022-11-23T03:33:21;27.95;;;15.10;;
57443;SDS011;43289;52.962;6.196;2022-11-23T03:35:47;24.25;;;14.20;;
57443;SDS011;43289;52.962;6.196;2022-11-23T03:40:48;23.67;;;15.50;;
57443;SDS011;43289;52.962;6.196;2022-11-23T03:43:14;28.50;;;16.67;;
57443;SDS011;43289;52.962;6.196;2022-11-23T03:45:41;28.55;;;16.67;;
57443;SDS011;43289;52.962;6.196;2022-11-23T03:48:07;25.73;;;16.13;;
57443;SDS011;43289;52.962;6.196;2022-11-23T03:50:33;28.73;;;16.73;;
57443;SDS011;43289;52.962;6.196;2022-11-23T03:52:59;27.67;;;16.05;;
57443;SDS011;43289;52.962;6.196;2022-11-23T03:55:25;26.13;;;18.42;;
57443;SDS011;43289;52.962;6.196;2022-11-23T03:57:51;31.35;;;17.63;;
57443;SDS011;43289;52.962;6.196;2022-11-23T04:00:23;30.58;;;16.80;;
57443;SDS011;43289;52.962;6.196;2022-11-23T04:02:49;29.52;;;17.52;;
57443;SDS011;43289;52.962;6.196;2022-11-23T04:05:15;28.08;;;17.55;;
57443;SDS011;43289;52.962;6.196;2022-11-23T04:07:41;26.60;;;17.52;;
57443;SDS011;43289;52.962;6.196;2022-11-23T04:10:07;27.85;;;18.40;;
57443;SDS011;43289;52.962;6.196;2022-11-23T04:12:36;28.63;;;18.63;;
57443;SDS011;43289;52.962;6.196;2022-11-23T04:15:02;28.55;;;18.48;;
57443;SDS011;43289;52.962;6.196;2022-11-23T04:17:30;31.90;;;18.80;;
57443;SDS011;43289;52.962;6.196;2022-11-23T04:19:56;32.80;;;18.52;;
57443;SDS011;43289;52.962;6.196;2022-11-23T04:22:23;33.85;;;19.13;;
57443;SDS011;43289;52.962;6.196;2022-11-23T04:24:48;36.95;;;19.58;;
57443;SDS011;43289;52.962;6.196;2022-11-23T04:27:14;31.25;;;18.33;;
57443;SDS011;43289;52.962;6.196;2022-11-23T04:29:40;30.05;;;19.67;;
57443;SDS011;43289;52.962;6.196;2022-11-23T04:32:06;29.13;;;17.48;;
57443;SDS011;43289;52.962;6.196;2022-11-23T04:34:32;36.15;;;20.15;;
57443;SDS011;43289;52.962;6.196;2022-11-23T04:36:58;29.38;;;17.27;;
57443;SDS011;43289;52.962;6.196;2022-11-23T04:39:25;31.15;;;19.77;;
57443;SDS011;43289;52.962;6.196;2022-11-23T04:41:51;28.40;;;17.38;;
57443;SDS011;43289;52.962;6.196;2022-11-23T04:44:17;27.35;;;18.05;;
57443;SDS011;43289;52.962;6.196;2022-11-23T04:46:45;30.00;;;19.23;;
57443;SDS011;43289;52.962;6.196;2022-11-23T04:49:11;31.40;;;18.92;;
57443;SDS011;43289;52.962;6.196;2022-11-23T04:51:37;35.20;;;20.50;;
57443;SDS011;43289;52.962;6.196;2022-11-23T04:54:03;30.83;;;20.02;;
57443;SDS011;43289;52.962;6.196;2022-11-23T04:56:29;28.55;;;18.08;;
57443;SDS011;43289;52.962;6.196;2022-11-23T04:58:55;28.88;;;19.20;;
57443;SDS011;43289;52.962;6.196;2022-11-23T05:01:21;30.10;;;18.13;;
57443;SDS011;43289;52.962;6.196;2022-11-23T05:03:47;33.55;;;19.67;;
57443;SDS011;43289;52.962;6.196;2022-11-23T05:06:13;30.42;;;19.13;;
57443;SDS011;43289;52.962;6.196;2022-11-23T05:08:39;28.63;;;18.08;;
57443;SDS011;43289;52.962;6.196;2022-11-23T05:11:05;31.73;;;20.25;;
57443;SDS011;43289;52.962;6.196;2022-11-23T05:13:31;31.23;;;18.60;;
57443;SDS011;43289;52.962;6.196;2022-11-23T05:15:57;29.08;;;17.90;;
57443;SDS011;43289;52.962;6.196;2022-11-23T05:18:23;31.92;;;19.77;;
57443;SDS011;43289;52.962;6.196;2022-11-23T05:20:49;33.05;;;19.23;;
57443;SDS011;43289;52.962;6.196;2022-11-23T05:23:15;32.10;;;18.85;;
57443;SDS011;43289;52.962;6.196;2022-11-23T05:25:41;31.42;;;19.80;;
57443;SDS011;43289;52.962;6.196;2022-11-23T05:28:08;32.30;;;20.60;;
57443;SDS011;43289;52.962;6.196;2022-11-23T05:30:38;26.98;;;18.05;;
57443;SDS011;43289;52.962;6.196;2022-11-23T05:33:04;32.42;;;19.13;;
57443;SDS011;43289;52.962;6.196;2022-11-23T05:35:30;28.02;;;17.63;;
57443;SDS011;43289;52.962;6.196;2022-11-23T05:37:56;32.20;;;19.33;;
57443;SDS011;43289;52.962;6.196;2022-11-23T05:40:23;30.33;;;18.73;;
57443;SDS011;43289;52.962;6.196;2022-11-23T05:42:52;32.35;;;18.40;;
57443;SDS011;43289;52.962;6.196;2022-11-23T05:45:18;28.40;;;17.45;;
57443;SDS011;43289;52.962;6.196;2022-11-23T05:47:48;29.73;;;18.83;;
57443;SDS011;43289;52.962;6.196;2022-11-23T05:52:57;29.42;;;16.75;;
57443;SDS011;43289;52.962;6.196;2022-11-23T05:55:23;24.75;;;17.58;;
57443;SDS011;43289;52.962;6.196;2022-11-23T05:57:49;26.58;;;15.90;;
57443;SDS011;43289;52.962;6.196;2022-11-23T06:00:15;24.65;;;14.75;;
57443;SDS011;43289;52.962;6.196;2022-11-23T06:02:41;25.80;;;15.23;;
57443;SDS011;43289;52.962;6.196;2022-11-23T06:05:14;27.60;;;15.07;;
57443;SDS011;43289;52.962;6.196;2022-11-23T06:07:40;25.48;;;13.63;;
57443;SDS011;43289;52.962;6.196;2022-11-23T06:10:06;23.25;;;15.10;;
57443;SDS011;43289;52.962;6.196;2022-11-23T06:12:32;24.38;;;14.75;;
57443;SDS011;43289;52.962;6.196;2022-11-23T06:14:58;20.60;;;12.95;;
57443;SDS011;43289;52.962;6.196;2022-11-23T06:17:24;24.63;;;14.82;;
57443;SDS011;43289;52.962;6.196;2022-11-23T06:19:50;26.05;;;13.13;;
57443;SDS011;43289;52.962;6.196;2022-11-23T06:22:16;20.98;;;13.32;;
57443;SDS011;43289;52.962;6.196;2022-11-23T06:24:42;20.15;;;13.15;;
57443;SDS011;43289;52.962;6.196;2022-11-23T06:27:08;21.75;;;13.25;;
57443;SDS011;43289;52.962;6.196;2022-11-23T06:29:34;18.17;;;10.95;;
57443;SDS011;43289;52.962;6.196;2022-11-23T06:32:00;16.85;;;11.05;;
57443;SDS011;43289;52.962;6.196;2022-11-23T06:34:26;18.25;;;11.32;;
57443;SDS011;43289;52.962;6.196;2022-11-23T06:36:53;20.75;;;11.23;;
57443;SDS011;43289;52.962;6.196;2022-11-23T06:39:19;18.45;;;10.48;;
57443;SDS011;43289;52.962;6.196;2022-11-23T06:41:45;20.30;;;10.82;;
57443;SDS011;43289;52.962;6.196;2022-11-23T06:44:16;17.33;;;10.60;;
57443;SDS011;43289;52.962;6.196;2022-11-23T06:46:42;19.27;;;11.18;;
57443;SDS011;43289;52.962;6.196;2022-11-23T06:49:08;19.15;;;9.80;;
57443;SDS011;43289;52.962;6.196;2022-11-23T06:51:34;15.82;;;9.68;;
57443;SDS011;43289;52.962;6.196;2022-11-23T06:54:00;20.95;;;11.02;;
57443;SDS011;43289;52.962;6.196;2022-11-23T06:56:26;20.73;;;9.82;;
57443;SDS011;43289;52.962;6.196;2022-11-23T06:58:52;20.60;;;9.80;;
57443;SDS011;43289;52.962;6.196;2022-11-23T07:01:18;19.60;;;9.73;;
57443;SDS011;43289;52.962;6.196;2022-11-23T07:03:44;16.60;;;8.60;;
57443;SDS011;43289;52.962;6.196;2022-11-23T07:06:10;14.23;;;9.13;;
57443;SDS011;43289;52.962;6.196;2022-11-23T07:08:36;12.65;;;7.72;;
57443;SDS011;43289;52.962;6.196;2022-11-23T07:11:08;11.82;;;8.15;;
57443;SDS011;43289;52.962;6.196;2022-11-23T07:13:34;15.88;;;8.57;;
57443;SDS011;43289;52.962;6.196;2022-11-23T07:16:00;19.08;;;7.88;;
57443;SDS011;43289;52.962;6.196;2022-11-23T07:18:28;19.52;;;8.15;;
57443;SDS011;43289;52.962;6.196;2022-11-23T07:20:58;16.10;;;8.68;;
57443;SDS011;43289;52.962;6.196;2022-11-23T07:23:24;19.92;;;9.18;;
57443;SDS011;43289;52.962;6.196;2022-11-23T07:25:50;18.75;;;8.05;;
57443;SDS011;43289;52.962;6.196;2022-11-23T07:28:17;17.52;;;7.55;;
57443;SDS011;43289;52.962;6.196;2022-11-23T07:30:43;12.63;;;7.22;;
57443;SDS011;43289;52.962;6.196;2022-11-23T07:33:14;14.10;;;7.25;;
57443;SDS011;43289;52.962;6.196;2022-11-23T07:35:40;16.65;;;7.40;;
57443;SDS011;43289;52.962;6.196;2022-11-23T07:38:06;18.40;;;7.43;;
57443;SDS011;43289;52.962;6.196;2022-11-23T07:40:34;13.07;;;6.38;;
57443;SDS011;43289;52.962;6.196;2022-11-23T07:43:01;12.13;;;6.80;;
57443;SDS011;43289;52.962;6.196;2022-11-23T07:45:27;13.48;;;7.05;;
57443;SDS011;43289;52.962;6.196;2022-11-23T07:48:04;13.55;;;7.13;;
57443;SDS011;43289;52.962;6.196;2022-11-23T07:50:30;15.38;;;7.75;;
57443;SDS011;43289;52.962;6.196;2022-11-23T07:52:57;16.80;;;7.30;;
57443;SDS011;43289;52.962;6.196;2022-11-23T07:55:23;18.13;;;7.20;;
57443;SDS011;43289;52.962;6.196;2022-11-23T07:57:52;12.77;;;6.68;;
57443;SDS011;43289;52.962;6.196;2022-11-23T08:00:19;15.88;;;6.95;;
57443;SDS011;43289;52.962;6.196;2022-11-23T08:02:45;13.82;;;7.15;;
57443;SDS011;43289;52.962;6.196;2022-11-23T08:05:11;11.02;;;6.60;;
57443;SDS011;43289;52.962;6.196;2022-11-23T08:07:37;17.30;;;6.80;;
57443;SDS011;43289;52.962;6.196;2022-11-23T08:10:03;12.45;;;7.03;;
57443;SDS011;43289;52.962;6.196;2022-11-23T08:12:29;16.98;;;6.32;;
57443;SDS011;43289;52.962;6.196;2022-11-23T08:14:56;14.40;;;6.57;;
57443;SDS011;43289;52.962;6.196;2022-11-23T08:17:22;18.10;;;6.28;;
57443;SDS011;43289;52.962;6.196;2022-11-23T08:19:48;11.35;;;5.90;;
57443;SDS011;43289;52.962;6.196;2022-11-23T08:22:14;17.23;;;6.90;;
57443;SDS011;43289;52.962;6.196;2022-11-23T08:24:40;11.05;;;5.85;;
57443;SDS011;43289;52.962;6.196;2022-11-23T08:27:06;11.73;;;5.53;;
57443;SDS011;43289;52.962;6.196;2022-11-23T08:29:32;11.93;;;5.75;;
57443;SDS011;43289;52.962;6.196;2022-11-23T08:31:58;11.70;;;6.10;;
57443;SDS011;43289;52.962;6.196;2022-11-23T08:34:24;12.38;;;6.18;;
57443;SDS011;43289;52.962;6.196;2022-11-23T08:36:50;13.32;;;5.63;;
57443;SDS011;43289;52.962;6.196;2022-11-23T08:39:16;12.32;;;6.18;;
57443;SDS011;43289;52.962;6.196;2022-11-23T08:41:43;16.42;;;5.75;;
57443;SDS011;43289;52.962;6.196;2022-11-23T08:44:09;10.48;;;5.18;;
57443;SDS011;43289;52.962;6.196;2022-11-23T08:46:36;13.95;;;5.70;;
57443;SDS011;43289;52.962;6.196;2022-11-23T08:49:03;10.70;;;6.63;;
57443;SDS011;43289;52.962;6.196;2022-11-23T08:51:29;12.20;;;5.00;;
57443;SDS011;43289;52.962;6.196;2022-11-23T08:53:55;15.38;;;5.55;;
57443;SDS011;43289;52.962;6.196;2022-11-23T08:56:21;17.42;;;6.00;;
57443;SDS011;43289;52.962;6.196;2022-11-23T08:58:47;14.25;;;5.65;;
57443;SDS011;43289;52.962;6.196;2022-11-23T09:01:13;13.40;;;5.50;;
57443;SDS011;43289;52.962;6.196;2022-11-23T09:03:39;10.75;;;5.00;;
57443;SDS011;43289;52.962;6.196;2022-11-23T09:06:06;11.73;;;5.05;;
57443;SDS011;43289;52.962;6.196;2022-11-23T09:08:32;10.15;;;4.85;;
57443;SDS011;43289;52.962;6.196;2022-11-23T09:10:59;17.30;;;8.20;;
57443;SDS011;43289;52.962;6.196;2022-11-23T09:13:25;8.27;;;4.63;;
57443;SDS011;43289;52.962;6.196;2022-11-23T09:15:56;11.85;;;5.32;;
57443;SDS011;43289;52.962;6.196;2022-11-23T09:18:22;12.10;;;5.22;;
57443;SDS011;43289;52.962;6.196;2022-11-23T09:20:48;11.63;;;4.72;;
57443;SDS011;43289;52.962;6.196;2022-11-23T09:23:15;15.48;;;4.95;;
57443;SDS011;43289;52.962;6.196;2022-11-23T09:25:41;9.82;;;4.75;;
57443;SDS011;43289;52.962;6.196;2022-11-23T09:28:11;10.40;;;4.20;;
57443;SDS011;43289;52.962;6.196;2022-11-23T09:30:39;10.75;;;4.03;;
57443;SDS011;43289;52.962;6.196;2022-11-23T09:33:05;17.35;;;4.70;;
57443;SDS011;43289;52.962;6.196;2022-11-23T09:35:32;10.80;;;4.90;;
57443;SDS011;43289;52.962;6.196;2022-11-23T09:37:58;11.18;;;4.45;;
57443;SDS011;43289;52.962;6.196;2022-11-23T09:40:27;10.73;;;4.30;;
57443;SDS011;43289;52.962;6.196;2022-11-23T09:45:47;19.00;;;6.32;;
57443;SDS011;43289;52.962;6.196;2022-11-23T09:48:36;10.75;;;5.20;;
57443;SDS011;43289;52.962;6.196;2022-11-23T09:53:45;19.92;;;4.88;;
57443;SDS011;43289;52.962;6.196;2022-11-23T09:56:17;14.27;;;4.65;;
57443;SDS011;43289;52.962;6.196;2022-11-23T09:58:44;10.95;;;5.22;;
57443;SDS011;43289;52.962;6.196;2022-11-23T10:01:11;10.82;;;5.05;;
57443;SDS011;43289;52.962;6.196;2022-11-23T10:03:39;16.27;;;4.90;;
57443;SDS011;43289;52.962;6.196;2022-11-23T10:06:13;11.48;;;4.40;;
57443;SDS011;43289;52.962;6.196;2022-11-23T10:08:56;14.05;;;4.47;;
57443;SDS011;43289;52.962;6.196;2022-11-23T10:11:34;9.80;;;4.05;;
57443;SDS011;43289;52.962;6.196;2022-11-23T10:16:53;13.00;;;4.32;;
57443;SDS011;43289;52.962;6.196;2022-11-23T10:19:32;11.75;;;4.57;;
57443;SDS011;43289;52.962;6.196;2022-11-23T10:22:11;10.45;;;4.40;;
57443;SDS011;43289;52.962;6.196;2022-11-23T10:24:39;15.05;;;4.65;;
57443;SDS011;43289;52.962;6.196;2022-11-23T10:27:10;15.30;;;4.43;;
57443;SDS011;43289;52.962;6.196;2022-11-23T10:29:38;11.02;;;4.95;;
57443;SDS011;43289;52.962;6.196;2022-11-23T10:32:05;19.42;;;5.35;;
57443;SDS011;43289;52.962;6.196;2022-11-23T10:34:56;12.38;;;4.85;;
57443;SDS011;43289;52.962;6.196;2022-11-23T10:37:25;8.30;;;3.57;;
57443;SDS011;43289;52.962;6.196;2022-11-23T10:39:51;11.48;;;4.32;;
57443;SDS011;43289;52.962;6.196;2022-11-23T10:42:25;17.23;;;4.43;;
57443;SDS011;43289;52.962;6.196;2022-11-23T10:44:54;14.43;;;4.68;;
57443;SDS011;43289;52.962;6.196;2022-11-23T10:47:38;11.90;;;3.90;;
57443;SDS011;43289;52.962;6.196;2022-11-23T10:50:18;12.10;;;4.55;;
57443;SDS011;43289;52.962;6.196;2022-11-23T10:52:52;16.73;;;5.00;;
57443;SDS011;43289;52.962;6.196;2022-11-23T10:55:21;12.90;;;3.67;;
57443;SDS011;43289;52.962;6.196;2022-11-23T10:57:48;15.38;;;4.20;;
57443;SDS011;43289;52.962;6.196;2022-11-23T11:00:15;9.77;;;3.63;;
57443;SDS011;43289;52.962;6.196;2022-11-23T11:02:43;16.00;;;4.55;;
57443;SDS011;43289;52.962;6.196;2022-11-23T11:05:11;12.10;;;3.88;;
57443;SDS011;43289;52.962;6.196;2022-11-23T11:07:37;14.52;;;4.10;;
57443;SDS011;43289;52.962;6.196;2022-11-23T11:10:04;12.18;;;4.97;;
57443;SDS011;43289;52.962;6.196;2022-11-23T11:12:33;9.55;;;3.35;;
57443;SDS011;43289;52.962;6.196;2022-11-23T11:17:36;14.98;;;4.40;;
57443;SDS011;43289;52.962;6.196;2022-11-23T11:22:48;11.52;;;3.05;;
57443;SDS011;43289;52.962;6.196;2022-11-23T11:25:47;10.63;;;3.28;;
57443;SDS011;43289;52.962;6.196;2022-11-23T11:28:20;14.13;;;3.08;;
57443;SDS011;43289;52.962;6.196;2022-11-23T11:30:56;12.60;;;3.20;;
57443;SDS011;43289;52.962;6.196;2022-11-23T11:33:32;12.48;;;3.28;;
57443;SDS011;43289;52.962;6.196;2022-11-23T11:36:02;17.65;;;3.65;;
57443;SDS011;43289;52.962;6.196;2022-11-23T11:38:30;10.93;;;3.03;;
57443;SDS011;43289;52.962;6.196;2022-11-23T11:40:59;10.90;;;3.10;;
57443;SDS011;43289;52.962;6.196;2022-11-23T11:46:12;12.30;;;3.45;;
57443;SDS011;43289;52.962;6.196;2022-11-23T11:48:46;12.00;;;3.38;;
57443;SDS011;43289;52.962;6.196;2022-11-23T11:52:16;12.27;;;3.13;;
57443;SDS011;43289;52.962;6.196;2022-11-23T11:56:40;15.27;;;3.25;;
57443;SDS011;43289;52.962;6.196;2022-11-23T11:59:15;12.48;;;2.92;;
57443;SDS011;43289;52.962;6.196;2022-11-23T12:04:24;15.60;;;3.67;;
57443;SDS011;43289;52.962;6.196;2022-11-23T12:06:52;12.40;;;2.90;;
57443;SDS011;43289;52.962;6.196;2022-11-23T12:09:23;12.82;;;2.90;;
57443;SDS011;43289;52.962;6.196;2022-11-23T12:11:50;13.00;;;3.22;;
57443;SDS011;43289;52.962;6.196;2022-11-23T12:14:17;10.63;;;3.20;;
57443;SDS011;43289;52.962;6.196;2022-11-23T12:16:49;11.20;;;3.13;;
57443;SDS011;43289;52.962;6.196;2022-11-23T12:19:25;9.02;;;2.60;;
57443;SDS011;43289;52.962;6.196;2022-11-23T12:22:06;9.52;;;3.42;;
57443;SDS011;43289;52.962;6.196;2022-11-23T12:24:49;10.50;;;2.67;;
57443;SDS011;43289;52.962;6.196;2022-11-23T12:27:32;7.93;;;2.25;;
57443;SDS011;43289;52.962;6.196;2022-11-23T12:32:46;7.35;;;2.60;;
57443;SDS011;43289;52.962;6.196;2022-11-23T12:37:55;9.18;;;2.45;;
57443;SDS011;43289;52.962;6.196;2022-11-23T12:40:29;10.63;;;2.40;;
57443;SDS011;43289;52.962;6.196;2022-11-23T12:43:05;6.82;;;2.20;;
57443;SDS011;43289;52.962;6.196;2022-11-23T12:51:38;12.82;;;3.15;;
57443;SDS011;43289;52.962;6.196;2022-11-23T12:58:53;8.38;;;2.55;;
57443;SDS011;43289;52.962;6.196;2022-11-23T13:01:38;8.43;;;2.30;;
57443;SDS011;43289;52.962;6.196;2022-11-23T13:04:16;9.10;;;2.15;;
57443;SDS011;43289;52.962;6.196;2022-11-23T13:09:21;12.52;;;2.72;;
57443;SDS011;43289;52.962;6.196;2022-11-23T13:12:00;6.93;;;2.15;;
57443;SDS011;43289;52.962;6.196;2022-11-23T13:14:48;7.80;;;2.88;;
57443;SDS011;43289;52.962;6.196;2022-11-23T13:19:54;7.35;;;3.15;;
57443;SDS011;43289;52.962;6.196;2022-11-23T13:22:26;7.88;;;2.38;;
57443;SDS011;43289;52.962;6.196;2022-11-23T13:40:22;11.68;;;3.33;;
57443;SDS011;43289;52.962;6.196;2022-11-23T13:42:49;9.00;;;2.40;;
57443;SDS011;43289;52.962;6.196;2022-11-23T13:50:30;9.65;;;2.30;;
57443;SDS011;43289;52.962;6.196;2022-11-23T13:52:56;4.85;;;1.70;;
57443;SDS011;43289;52.962;6.196;2022-11-23T13:55:36;9.48;;;2.10;;
57443;SDS011;43289;52.962;6.196;2022-11-23T14:00:51;8.90;;;2.30;;
57443;SDS011;43289;52.962;6.196;2022-11-23T14:06:03;9.20;;;2.20;;
57443;SDS011;43289;52.962;6.196;2022-11-23T14:08:31;9.63;;;2.70;;
57443;SDS011;43289;52.962;6.196;2022-11-23T14:10:57;6.43;;;2.03;;
57443;SDS011;43289;52.962;6.196;2022-11-23T14:13:25;8.63;;;2.08;;
57443;SDS011;43289;52.962;6.196;2022-11-23T14:16:02;8.90;;;2.17;;
57443;SDS011;43289;52.962;6.196;2022-11-23T14:26:30;9.02;;;2.17;;
57443;SDS011;43289;52.962;6.196;2022-11-23T14:34:31;8.38;;;1.98;;
57443;SDS011;43289;52.962;6.196;2022-11-23T14:37:21;7.00;;;2.22;;
57443;SDS011;43289;52.962;6.196;2022-11-23T14:39:57;7.85;;;1.85;;
57443;SDS011;43289;52.962;6.196;2022-11-23T14:42:24;10.75;;;2.40;;
57443;SDS011;43289;52.962;6.196;2022-11-23T14:44:55;7.35;;;2.10;;
57443;SDS011;43289;52.962;6.196;2022-11-23T14:47:26;9.32;;;1.95;;
57443;SDS011;43289;52.962;6.196;2022-11-23T14:49:52;9.57;;;2.13;;
57443;SDS011;43289;52.962;6.196;2022-11-23T14:52:20;7.65;;;2.13;;
57443;SDS011;43289;52.962;6.196;2022-11-23T14:54:50;6.18;;;2.00;;
57443;SDS011;43289;52.962;6.196;2022-11-23T14:57:17;9.20;;;2.30;;
57443;SDS011;43289;52.962;6.196;2022-11-23T14:59:48;8.57;;;1.90;;
57443;SDS011;43289;52.962;6.196;2022-11-23T15:02:19;5.47;;;1.60;;
57443;SDS011;43289;52.962;6.196;2022-11-23T15:04:59;9.77;;;1.80;;
57443;SDS011;43289;52.962;6.196;2022-11-23T15:07:26;5.93;;;1.90;;
57443;SDS011;43289;52.962;6.196;2022-11-23T15:10:01;6.93;;;2.88;;
57443;SDS011;43289;52.962;6.196;2022-11-23T15:12:40;6.30;;;1.73;;
57443;SDS011;43289;52.962;6.196;2022-11-23T15:15:24;6.30;;;3.95;;
57443;SDS011;43289;52.962;6.196;2022-11-23T15:17:53;8.45;;;5.40;;
57443;SDS011;43289;52.962;6.196;2022-11-23T15:20:20;8.23;;;2.58;;
57443;SDS011;43289;52.962;6.196;2022-11-23T15:22:48;6.00;;;2.60;;
57443;SDS011;43289;52.962;6.196;2022-11-23T15:25:15;9.68;;;2.50;;
57443;SDS011;43289;52.962;6.196;2022-11-23T15:27:43;4.35;;;2.03;;
57443;SDS011;43289;52.962;6.196;2022-11-23T15:30:14;9.57;;;2.80;;
57443;SDS011;43289;52.962;6.196;2022-11-23T15:32:40;9.55;;;2.30;;
57443;SDS011;43289;52.962;6.196;2022-11-23T15:35:06;7.90;;;2.50;;
57443;SDS011;43289;52.962;6.196;2022-11-23T15:37:39;4.68;;;2.08;;
57443;SDS011;43289;52.962;6.196;2022-11-23T15:40:10;6.85;;;2.42;;
57443;SDS011;43289;52.962;6.196;2022-11-23T15:42:37;6.90;;;2.60;;
57443;SDS011;43289;52.962;6.196;2022-11-23T15:47:34;8.55;;;2.40;;
57443;SDS011;43289;52.962;6.196;2022-11-23T15:50:06;7.63;;;2.60;;
57443;SDS011;43289;52.962;6.196;2022-11-23T15:52:34;8.00;;;2.20;;
57443;SDS011;43289;52.962;6.196;2022-11-23T15:55:04;7.30;;;2.83;;
57443;SDS011;43289;52.962;6.196;2022-11-23T15:57:31;8.40;;;3.00;;
57443;SDS011;43289;52.962;6.196;2022-11-23T15:59:58;7.47;;;3.63;;
57443;SDS011;43289;52.962;6.196;2022-11-23T16:02:26;7.03;;;2.53;;
57443;SDS011;43289;52.962;6.196;2022-11-23T16:07:54;8.30;;;2.22;;
57443;SDS011;43289;52.962;6.196;2022-11-23T16:10:25;7.28;;;2.10;;
57443;SDS011;43289;52.962;6.196;2022-11-23T16:12:55;4.43;;;2.13;;
57443;SDS011;43289;52.962;6.196;2022-11-23T16:17:54;9.82;;;4.22;;
57443;SDS011;43289;52.962;6.196;2022-11-23T16:20:24;8.38;;;2.40;;
57443;SDS011;43289;52.962;6.196;2022-11-23T16:25:23;9.65;;;3.30;;
57443;SDS011;43289;52.962;6.196;2022-11-23T16:27:57;7.78;;;2.85;;
57443;SDS011;43289;52.962;6.196;2022-11-23T16:30:24;13.15;;;2.10;;
57443;SDS011;43289;52.962;6.196;2022-11-23T16:32:50;8.52;;;2.10;;